createdAt,value
2017-12-23T00:00:44.889Z,1027.44
2017-12-23T00:01:44.878Z,1027.40
2017-12-23T00:02:44.860Z,1027.41
2017-12-23T00:03:44.837Z,1027.36
2017-12-23T00:04:44.844Z,1027.31
2017-12-23T00:05:44.798Z,1027.37
2017-12-23T00:06:44.784Z,1027.37
2017-12-23T00:07:44.761Z,1027.36
2017-12-23T00:08:44.745Z,1027.36
2017-12-23T00:09:44.725Z,1027.34
2017-12-23T00:10:44.706Z,1027.33
2017-12-23T00:11:44.684Z,1027.33
2017-12-23T00:12:44.677Z,1027.23
2017-12-23T00:13:44.652Z,1027.23
2017-12-23T00:15:44.689Z,1027.12
2017-12-23T00:16:44.711Z,1027.13
2017-12-23T00:17:44.592Z,1027.05
2017-12-23T00:18:44.551Z,1027.06
2017-12-23T00:19:44.521Z,1026.98
2017-12-23T00:20:44.493Z,1027.03
2017-12-23T00:21:44.500Z,1027.00
2017-12-23T00:22:44.461Z,1027.00
2017-12-23T00:23:44.444Z,1027.01
2017-12-23T00:24:44.419Z,1027.07
2017-12-23T00:25:44.401Z,1027.04
2017-12-23T00:26:44.394Z,1027.06
2017-12-23T00:27:44.382Z,1027.07
2017-12-23T00:28:44.357Z,1027.03
2017-12-23T00:29:44.329Z,1027.04
2017-12-23T00:30:44.350Z,1027.00
2017-12-23T00:31:44.295Z,1026.96
2017-12-23T00:32:44.277Z,1026.91
2017-12-23T00:33:44.255Z,1026.90
2017-12-23T00:34:44.235Z,1026.89
2017-12-23T00:35:44.223Z,1026.87
2017-12-23T00:36:44.202Z,1026.91
2017-12-23T00:37:44.187Z,1026.94
2017-12-23T00:38:44.167Z,1026.92
2017-12-23T00:39:44.154Z,1026.91
2017-12-23T00:40:44.132Z,1026.93
2017-12-23T00:41:44.110Z,1026.93
2017-12-23T00:42:44.097Z,1026.85
2017-12-23T00:43:44.078Z,1026.83
2017-12-23T00:44:44.064Z,1026.80
2017-12-23T00:45:44.041Z,1026.75
2017-12-23T00:46:44.034Z,1026.74
2017-12-23T00:47:44.002Z,1026.72
2017-12-23T00:48:43.984Z,1026.68
2017-12-23T00:49:43.970Z,1026.70
2017-12-23T00:50:43.956Z,1026.75
2017-12-23T00:51:43.930Z,1026.74
2017-12-23T00:52:43.907Z,1026.74
2017-12-23T00:53:43.894Z,1026.67
2017-12-23T00:54:43.897Z,1026.69
2017-12-23T00:55:43.862Z,1026.65
2017-12-23T00:56:43.884Z,1026.62
2017-12-23T00:57:43.829Z,1026.66
2017-12-23T00:58:43.808Z,1026.62
2017-12-23T00:59:43.789Z,1026.70
2017-12-23T01:00:43.766Z,1026.70
2017-12-23T01:01:43.776Z,1026.69
2017-12-23T01:02:43.736Z,1026.62
2017-12-23T01:03:43.715Z,1026.59
2017-12-23T01:04:43.724Z,1026.57
2017-12-23T01:05:43.676Z,1026.52
2017-12-23T01:06:43.736Z,1026.47
2017-12-23T01:07:43.643Z,1026.46
2017-12-23T01:08:43.618Z,1026.39
2017-12-23T01:09:43.606Z,1026.38
2017-12-23T01:10:43.590Z,1026.41
2017-12-23T01:11:43.567Z,1026.36
2017-12-23T01:12:43.545Z,1026.36
2017-12-23T01:13:43.534Z,1026.30
2017-12-23T01:14:43.513Z,1026.24
2017-12-23T01:15:43.495Z,1026.23
2017-12-23T01:16:43.480Z,1026.22
2017-12-23T01:17:43.470Z,1026.22
2017-12-23T01:18:43.449Z,1026.23
2017-12-23T01:19:43.420Z,1026.23
2017-12-23T01:20:43.400Z,1026.20
2017-12-23T01:21:43.381Z,1026.20
2017-12-23T01:22:43.369Z,1026.16
2017-12-23T01:23:43.347Z,1026.18
2017-12-23T01:24:43.328Z,1026.16
2017-12-23T01:25:43.319Z,1026.17
2017-12-23T01:26:43.292Z,1026.18
2017-12-23T01:27:43.275Z,1026.22
2017-12-23T01:28:43.256Z,1026.24
2017-12-23T01:30:43.225Z,1026.16
2017-12-23T01:31:43.208Z,1026.14
2017-12-23T01:32:43.175Z,1026.14
2017-12-23T01:33:43.167Z,1026.13
2017-12-23T01:34:43.146Z,1026.16
2017-12-23T01:35:43.128Z,1026.11
2017-12-23T01:36:43.124Z,1026.09
2017-12-23T01:37:43.088Z,1026.10
2017-12-23T01:38:43.076Z,1026.06
2017-12-23T01:39:43.058Z,1026.00
2017-12-23T01:40:43.028Z,1025.98
2017-12-23T01:41:43.023Z,1025.95
2017-12-23T01:42:43.000Z,1025.95
2017-12-23T01:43:42.979Z,1025.88
2017-12-23T01:44:42.962Z,1025.85
2017-12-23T01:45:42.943Z,1025.86
2017-12-23T01:46:42.927Z,1025.86
2017-12-23T01:47:42.906Z,1025.84
2017-12-23T01:48:42.886Z,1025.87
2017-12-23T01:49:42.867Z,1025.87
2017-12-23T01:50:42.846Z,1025.85
2017-12-23T01:51:42.832Z,1025.90
2017-12-23T01:52:42.823Z,1025.88
2017-12-23T01:53:42.791Z,1025.86
2017-12-23T01:54:42.775Z,1025.85
2017-12-23T01:55:42.759Z,1025.85
2017-12-23T01:56:42.741Z,1025.86
2017-12-23T01:57:42.723Z,1025.87
2017-12-23T01:58:42.699Z,1025.83
2017-12-23T01:59:42.682Z,1025.83
2017-12-23T02:00:42.664Z,1025.81
2017-12-23T02:01:42.642Z,1025.80
2017-12-23T02:02:42.635Z,1025.76
2017-12-23T02:03:42.609Z,1025.83
2017-12-23T02:04:42.587Z,1025.81
2017-12-23T02:05:42.573Z,1025.85
2017-12-23T02:06:42.559Z,1025.85
2017-12-23T02:07:42.533Z,1025.88
2017-12-23T02:08:42.516Z,1025.89
2017-12-23T02:09:42.506Z,1025.88
2017-12-23T02:10:42.544Z,1025.89
2017-12-23T02:11:42.458Z,1025.89
2017-12-23T02:12:42.434Z,1025.89
2017-12-23T02:13:42.430Z,1025.90
2017-12-23T02:14:42.412Z,1025.87
2017-12-23T02:15:42.382Z,1025.83
2017-12-23T02:16:42.364Z,1025.85
2017-12-23T02:17:42.343Z,1025.83
2017-12-23T02:18:42.348Z,1025.78
2017-12-23T02:19:42.307Z,1025.80
2017-12-23T02:20:42.323Z,1025.81
2017-12-23T02:21:42.268Z,1025.82
2017-12-23T02:22:42.265Z,1025.80
2017-12-23T02:23:42.233Z,1025.78
2017-12-23T02:24:42.286Z,1025.80
2017-12-23T02:25:42.192Z,1025.85
2017-12-23T02:26:42.183Z,1025.83
2017-12-23T02:27:42.169Z,1025.86
2017-12-23T02:28:42.171Z,1025.81
2017-12-23T02:29:42.121Z,1025.79
2017-12-23T02:30:42.112Z,1025.80
2017-12-23T02:31:42.133Z,1025.82
2017-12-23T02:32:42.075Z,1025.82
2017-12-23T02:33:42.052Z,1025.78
2017-12-23T02:34:42.032Z,1025.72
2017-12-23T02:35:42.011Z,1025.67
2017-12-23T02:36:41.993Z,1025.54
2017-12-23T02:37:41.977Z,1025.49
2017-12-23T02:38:41.960Z,1025.42
2017-12-23T02:39:41.942Z,1025.35
2017-12-23T02:40:41.916Z,1025.32
2017-12-23T02:41:41.902Z,1025.27
2017-12-23T02:42:41.880Z,1025.25
2017-12-23T02:43:41.862Z,1025.32
2017-12-23T02:44:41.849Z,1025.30
2017-12-23T02:45:41.840Z,1025.27
2017-12-23T02:46:41.824Z,1025.29
2017-12-23T02:47:41.788Z,1025.30
2017-12-23T02:48:41.770Z,1025.32
2017-12-23T02:49:41.747Z,1025.34
2017-12-23T02:50:41.737Z,1025.33
2017-12-23T02:51:41.720Z,1025.35
2017-12-23T02:52:41.695Z,1025.36
2017-12-23T02:53:41.711Z,1025.34
2017-12-23T02:54:41.669Z,1025.34
2017-12-23T02:55:41.647Z,1025.33
2017-12-23T02:56:41.629Z,1025.32
2017-12-23T02:57:41.608Z,1025.25
2017-12-23T02:58:41.597Z,1025.20
2017-12-23T02:59:41.567Z,1025.21
2017-12-23T03:00:41.562Z,1025.24
2017-12-23T03:01:41.525Z,1025.23
2017-12-23T03:02:41.533Z,1025.24
2017-12-23T03:03:41.494Z,1025.27
2017-12-23T03:04:41.465Z,1025.18
2017-12-23T03:05:41.450Z,1025.18
2017-12-23T03:06:41.443Z,1025.20
2017-12-23T03:07:41.428Z,1025.17
2017-12-23T03:08:41.396Z,1025.16
2017-12-23T03:09:41.381Z,1025.17
2017-12-23T03:10:41.363Z,1025.15
2017-12-23T03:11:41.339Z,1025.16
2017-12-23T03:12:41.323Z,1025.13
2017-12-23T03:13:41.302Z,1025.12
2017-12-23T03:14:41.281Z,1025.11
2017-12-23T03:15:41.269Z,1025.14
2017-12-23T03:16:41.246Z,1025.14
2017-12-23T03:17:41.225Z,1025.16
2017-12-23T03:18:41.209Z,1025.20
2017-12-23T03:19:41.189Z,1025.22
2017-12-23T03:20:41.172Z,1025.21
2017-12-23T03:21:41.147Z,1025.23
2017-12-23T03:22:41.138Z,1025.24
2017-12-23T03:23:41.124Z,1025.27
2017-12-23T03:24:41.097Z,1025.23
2017-12-23T03:25:41.077Z,1025.19
2017-12-23T03:26:41.068Z,1025.20
2017-12-23T03:27:41.041Z,1025.21
2017-12-23T03:28:41.028Z,1025.16
2017-12-23T03:29:41.002Z,1025.11
2017-12-23T03:30:40.985Z,1025.08
2017-12-23T03:31:40.968Z,1025.06
2017-12-23T03:32:40.946Z,1025.10
2017-12-23T03:33:40.921Z,1025.06
2017-12-23T03:34:40.918Z,1025.04
2017-12-23T03:35:40.893Z,1025.01
2017-12-23T03:36:40.899Z,1025.06
2017-12-23T03:37:40.848Z,1025.06
2017-12-23T03:38:40.850Z,1025.04
2017-12-23T03:39:40.818Z,1025.09
2017-12-23T03:40:40.819Z,1025.08
2017-12-23T03:41:40.795Z,1025.12
2017-12-23T03:42:40.758Z,1025.12
2017-12-23T03:43:40.742Z,1025.14
2017-12-23T03:44:40.724Z,1025.17
2017-12-23T03:45:40.737Z,1025.16
2017-12-23T03:46:40.692Z,1025.16
2017-12-23T03:47:40.664Z,1025.16
2017-12-23T03:48:40.649Z,1025.17
2017-12-23T03:49:40.641Z,1025.16
2017-12-23T03:50:40.612Z,1025.13
2017-12-23T03:51:40.597Z,1025.16
2017-12-23T03:52:40.576Z,1025.15
2017-12-23T03:53:40.548Z,1025.13
2017-12-23T03:54:40.535Z,1025.11
2017-12-23T03:55:40.513Z,1025.14
2017-12-23T03:56:40.500Z,1025.06
2017-12-23T03:57:40.480Z,1025.09
2017-12-23T03:58:40.452Z,1025.09
2017-12-23T03:59:40.438Z,1025.07
2017-12-23T04:00:40.424Z,1025.08
2017-12-23T04:01:40.400Z,1025.11
2017-12-23T04:02:40.378Z,1025.09
2017-12-23T04:03:40.378Z,1025.11
2017-12-23T04:04:40.350Z,1025.13
2017-12-23T04:05:40.330Z,1025.13
2017-12-23T04:06:40.311Z,1025.10
2017-12-23T04:07:40.288Z,1025.11
2017-12-23T04:08:40.266Z,1025.10
2017-12-23T04:09:40.279Z,1025.07
2017-12-23T04:10:40.230Z,1025.08
2017-12-23T04:11:40.209Z,1025.09
2017-12-23T04:12:40.194Z,1025.06
2017-12-23T04:13:40.179Z,1025.10
2017-12-23T04:14:40.150Z,1025.08
2017-12-23T04:15:40.137Z,1025.05
2017-12-23T04:16:40.114Z,1024.99
2017-12-23T04:17:40.104Z,1024.98
2017-12-23T04:18:40.082Z,1025.00
2017-12-23T04:19:40.061Z,1024.96
2017-12-23T04:20:40.043Z,1024.96
2017-12-23T04:21:40.028Z,1024.95
2017-12-23T04:22:40.009Z,1024.95
2017-12-23T04:23:39.990Z,1024.95
2017-12-23T04:24:39.974Z,1024.96
2017-12-23T04:25:39.951Z,1024.96
2017-12-23T04:26:39.924Z,1024.97
2017-12-23T04:27:39.913Z,1025.03
2017-12-23T04:28:39.892Z,1024.96
2017-12-23T04:29:39.876Z,1024.97
2017-12-23T04:30:39.862Z,1024.97
2017-12-23T04:31:39.877Z,1025.00
2017-12-23T04:32:39.818Z,1024.96
2017-12-23T04:33:39.806Z,1025.00
2017-12-23T04:34:39.787Z,1024.97
2017-12-23T04:35:39.772Z,1025.00
2017-12-23T04:36:39.743Z,1025.00
2017-12-23T04:37:39.725Z,1024.96
2017-12-23T04:38:39.706Z,1024.97
2017-12-23T04:39:39.692Z,1024.93
2017-12-23T04:40:39.666Z,1024.89
2017-12-23T04:41:39.664Z,1024.90
2017-12-23T04:42:39.642Z,1024.84
2017-12-23T04:43:39.615Z,1024.85
2017-12-23T04:44:39.650Z,1024.84
2017-12-23T04:45:39.591Z,1024.80
2017-12-23T04:46:39.584Z,1024.81
2017-12-23T04:47:39.556Z,1024.82
2017-12-23T04:48:39.532Z,1024.80
2017-12-23T04:49:39.510Z,1024.79
2017-12-23T04:50:39.488Z,1024.78
2017-12-23T04:51:39.479Z,1024.79
2017-12-23T04:52:39.480Z,1024.78
2017-12-23T04:53:39.436Z,1024.77
2017-12-23T04:54:39.478Z,1024.76
2017-12-23T04:55:39.382Z,1024.74
2017-12-23T04:56:39.403Z,1024.73
2017-12-23T04:57:39.386Z,1024.71
2017-12-23T04:58:39.365Z,1024.74
2017-12-23T04:59:39.332Z,1024.71
2017-12-23T05:00:39.330Z,1024.69
2017-12-23T05:01:39.272Z,1024.66
2017-12-23T05:02:39.313Z,1024.66
2017-12-23T05:03:39.249Z,1024.68
2017-12-23T05:04:39.234Z,1024.65
2017-12-23T05:05:39.203Z,1024.62
2017-12-23T05:06:39.194Z,1024.63
2017-12-23T05:07:39.203Z,1024.61
2017-12-23T05:08:39.155Z,1024.64
2017-12-23T05:09:39.141Z,1024.61
2017-12-23T05:10:39.122Z,1024.63
2017-12-23T05:11:39.096Z,1024.60
2017-12-23T05:12:39.070Z,1024.51
2017-12-23T05:13:39.046Z,1024.55
2017-12-23T05:14:39.059Z,1024.52
2017-12-23T05:15:39.066Z,1024.52
2017-12-23T05:16:39.000Z,1024.53
2017-12-23T05:17:38.992Z,1024.51
2017-12-23T05:18:38.972Z,1024.54
2017-12-23T05:19:39.041Z,1024.52
2017-12-23T05:20:38.935Z,1024.51
2017-12-23T05:21:38.934Z,1024.54
2017-12-23T05:22:38.889Z,1024.47
2017-12-23T05:23:39.016Z,1024.42
2017-12-23T05:24:38.858Z,1024.39
2017-12-23T05:25:38.831Z,1024.41
2017-12-23T05:26:38.821Z,1024.44
2017-12-23T05:27:38.805Z,1024.38
2017-12-23T05:28:38.779Z,1024.35
2017-12-23T05:29:38.771Z,1024.37
2017-12-23T05:30:38.762Z,1024.39
2017-12-23T05:31:38.725Z,1024.34
2017-12-23T05:32:38.725Z,1024.35
2017-12-23T05:33:38.672Z,1024.32
2017-12-23T05:34:38.671Z,1024.32
2017-12-23T05:35:38.655Z,1024.26
2017-12-23T05:36:38.628Z,1024.28
2017-12-23T05:37:38.605Z,1024.24
2017-12-23T05:38:38.597Z,1024.26
2017-12-23T05:39:38.593Z,1024.27
2017-12-23T05:40:38.552Z,1024.28
2017-12-23T05:41:38.554Z,1024.29
2017-12-23T05:42:38.514Z,1024.30
2017-12-23T05:43:38.504Z,1024.33
2017-12-23T05:44:38.494Z,1024.30
2017-12-23T05:45:38.462Z,1024.33
2017-12-23T05:46:38.454Z,1024.32
2017-12-23T05:47:38.433Z,1024.33
2017-12-23T05:48:38.405Z,1024.34
2017-12-23T05:49:38.389Z,1024.30
2017-12-23T05:50:38.373Z,1024.33
2017-12-23T05:51:38.370Z,1024.30
2017-12-23T05:52:38.369Z,1024.32
2017-12-23T05:53:38.310Z,1024.30
2017-12-23T05:54:38.297Z,1024.21
2017-12-23T05:55:38.294Z,1024.20
2017-12-23T05:56:38.274Z,1024.26
2017-12-23T05:57:38.239Z,1024.23
2017-12-23T05:58:38.222Z,1024.22
2017-12-23T05:59:38.218Z,1024.33
2017-12-23T06:00:38.185Z,1024.32
2017-12-23T06:01:38.167Z,1024.28
2017-12-23T06:02:38.169Z,1024.32
2017-12-23T06:03:38.133Z,1024.29
2017-12-23T06:04:38.128Z,1024.33
2017-12-23T06:05:38.095Z,1024.33
2017-12-23T06:06:38.085Z,1024.29
2017-12-23T06:07:38.066Z,1024.25
2017-12-23T06:08:38.025Z,1024.21
2017-12-23T06:09:38.014Z,1024.22
2017-12-23T06:10:37.999Z,1024.23
2017-12-23T06:11:37.987Z,1024.22
2017-12-23T06:12:37.985Z,1024.21
2017-12-23T06:13:37.941Z,1024.22
2017-12-23T06:14:37.921Z,1024.22
2017-12-23T06:15:37.897Z,1024.24
2017-12-23T06:16:37.882Z,1024.27
2017-12-23T06:17:37.874Z,1024.24
2017-12-23T06:18:37.850Z,1024.22
2017-12-23T06:19:37.832Z,1024.19
2017-12-23T06:20:37.816Z,1024.21
2017-12-23T06:21:37.792Z,1024.11
2017-12-23T06:22:37.774Z,1024.15
2017-12-23T06:23:37.779Z,1024.18
2017-12-23T06:24:37.760Z,1024.13
2017-12-23T06:25:37.720Z,1024.10
2017-12-23T06:26:37.707Z,1024.08
2017-12-23T06:27:37.677Z,1024.08
2017-12-23T06:28:37.685Z,1024.08
2017-12-23T06:29:37.646Z,1024.08
2017-12-23T06:30:37.629Z,1024.09
2017-12-23T06:31:37.619Z,1024.09
2017-12-23T06:32:37.625Z,1024.06
2017-12-23T06:33:37.628Z,1024.12
2017-12-23T06:34:37.551Z,1024.11
2017-12-23T06:35:37.526Z,1024.05
2017-12-23T06:36:37.560Z,1024.07
2017-12-23T06:37:37.512Z,1024.00
2017-12-23T06:38:37.480Z,1024.09
2017-12-23T06:39:37.478Z,1024.11
2017-12-23T06:40:37.443Z,1024.14
2017-12-23T06:41:37.434Z,1024.14
2017-12-23T06:42:37.407Z,1024.17
2017-12-23T06:43:37.390Z,1024.19
2017-12-23T06:44:37.379Z,1024.19
2017-12-23T06:45:37.344Z,1024.16
2017-12-23T06:46:37.326Z,1024.24
2017-12-23T06:47:37.295Z,1024.23
2017-12-23T06:48:37.273Z,1024.23
2017-12-23T06:49:37.268Z,1024.30
2017-12-23T06:50:37.308Z,1024.20
2017-12-23T06:51:37.262Z,1024.19
2017-12-23T06:52:37.217Z,1024.27
2017-12-23T06:53:37.192Z,1024.19
2017-12-23T06:54:37.181Z,1024.16
2017-12-23T06:55:37.182Z,1024.22
2017-12-23T06:56:37.178Z,1024.26
2017-12-23T06:57:37.183Z,1024.27
2017-12-23T06:58:37.093Z,1024.18
2017-12-23T06:59:37.113Z,1024.21
2017-12-23T07:00:37.056Z,1024.19
2017-12-23T07:02:37.022Z,1024.20
2017-12-23T07:03:37.036Z,1024.19
2017-12-23T07:04:36.983Z,1024.19
2017-12-23T07:05:36.966Z,1024.17
2017-12-23T07:06:36.949Z,1024.16
2017-12-23T07:07:36.937Z,1024.17
2017-12-23T07:08:36.921Z,1024.18
2017-12-23T07:09:36.928Z,1024.18
2017-12-23T07:10:36.889Z,1024.18
2017-12-23T07:11:36.860Z,1024.22
2017-12-23T07:12:36.842Z,1024.23
2017-12-23T07:13:36.825Z,1024.20
2017-12-23T07:14:36.795Z,1024.17
2017-12-23T07:15:36.816Z,1024.17
2017-12-23T07:16:36.770Z,1024.20
2017-12-23T07:17:36.751Z,1024.23
2017-12-23T07:18:36.748Z,1024.19
2017-12-23T07:19:36.736Z,1024.19
2017-12-23T07:20:36.682Z,1024.23
2017-12-23T07:21:36.669Z,1024.27
2017-12-23T07:22:36.656Z,1024.23
2017-12-23T07:23:36.645Z,1024.19
2017-12-23T07:24:36.607Z,1024.19
2017-12-23T07:25:36.657Z,1024.11
2017-12-23T07:26:36.592Z,1024.11
2017-12-23T07:27:36.567Z,1024.12
2017-12-23T07:28:36.528Z,1024.15
2017-12-23T07:29:36.559Z,1024.11
2017-12-23T07:30:36.493Z,1024.12
2017-12-23T07:31:36.481Z,1024.11
2017-12-23T07:32:36.454Z,1024.13
2017-12-23T07:33:36.437Z,1024.16
2017-12-23T07:34:36.442Z,1024.15
2017-12-23T07:35:36.414Z,1024.16
2017-12-23T07:36:36.383Z,1024.19
2017-12-23T07:37:36.361Z,1024.18
2017-12-23T07:38:36.359Z,1024.17
2017-12-23T07:39:36.327Z,1024.14
2017-12-23T07:40:36.324Z,1024.13
2017-12-23T07:41:36.293Z,1024.14
2017-12-23T07:42:36.278Z,1024.16
2017-12-23T07:43:36.261Z,1024.14
2017-12-23T07:44:36.229Z,1024.15
2017-12-23T07:45:36.216Z,1024.17
2017-12-23T07:46:36.205Z,1024.11
2017-12-23T07:47:36.186Z,1024.12
2017-12-23T07:48:36.169Z,1024.12
2017-12-23T07:49:36.145Z,1024.11
2017-12-23T07:50:36.135Z,1024.05
2017-12-23T07:51:36.134Z,1024.11
2017-12-23T07:52:36.104Z,1024.18
2017-12-23T07:53:36.058Z,1024.14
2017-12-23T07:54:36.075Z,1024.20
2017-12-23T07:55:36.039Z,1024.20
2017-12-23T07:56:36.030Z,1024.22
2017-12-23T07:57:35.985Z,1024.22
2017-12-23T07:58:35.979Z,1024.22
2017-12-23T07:59:35.951Z,1024.28
2017-12-23T08:00:35.946Z,1024.28
2017-12-23T08:01:35.913Z,1024.24
2017-12-23T08:02:35.917Z,1024.28
2017-12-23T08:03:35.945Z,1024.28
2017-12-23T08:04:35.881Z,1024.30
2017-12-23T08:05:35.838Z,1024.32
2017-12-23T08:06:35.856Z,1024.26
2017-12-23T08:07:35.815Z,1024.31
2017-12-23T08:08:35.786Z,1024.24
2017-12-23T08:09:35.834Z,1024.26
2017-12-23T08:10:35.762Z,1024.25
2017-12-23T08:11:35.728Z,1024.25
2017-12-23T08:12:35.858Z,1024.28
2017-12-23T08:13:35.694Z,1024.22
2017-12-23T08:14:35.669Z,1024.21
2017-12-23T08:15:35.656Z,1024.20
2017-12-23T08:16:35.626Z,1024.19
2017-12-23T08:17:35.619Z,1024.15
2017-12-23T08:18:35.595Z,1024.17
2017-12-23T08:19:35.601Z,1024.12
2017-12-23T08:20:35.611Z,1024.15
2017-12-23T08:21:35.538Z,1024.13
2017-12-23T08:22:35.523Z,1024.15
2017-12-23T08:23:36.005Z,1024.16
2017-12-23T08:24:35.505Z,1024.15
2017-12-23T08:25:36.041Z,1024.12
2017-12-23T08:26:35.470Z,1024.11
2017-12-23T08:27:35.425Z,1024.07
2017-12-23T08:28:35.418Z,1024.06
2017-12-23T08:29:35.495Z,1024.02
2017-12-23T08:30:36.011Z,1024.03
2017-12-23T08:31:35.353Z,1024.02
2017-12-23T08:32:36.007Z,1024.03
2017-12-23T08:33:35.345Z,1024.00
2017-12-23T08:34:35.295Z,1023.97
2017-12-23T08:35:35.317Z,1024.01
2017-12-23T08:36:35.260Z,1024.06
2017-12-23T08:37:35.344Z,1024.01
2017-12-23T08:38:35.303Z,1024.04
2017-12-23T08:39:35.412Z,1024.02
2017-12-23T08:40:35.186Z,1024.04
2017-12-23T08:41:35.175Z,1024.06
2017-12-23T08:42:35.154Z,1024.16
2017-12-23T08:43:35.138Z,1024.16
2017-12-23T08:44:35.108Z,1024.15
2017-12-23T08:45:35.086Z,1024.15
2017-12-23T08:46:36.512Z,1024.08
2017-12-23T08:47:35.050Z,1024.06
2017-12-23T08:48:35.034Z,1024.08
2017-12-23T08:49:35.025Z,1024.07
2017-12-23T08:50:35.026Z,1024.04
2017-12-23T08:51:34.980Z,1024.05
2017-12-23T08:52:34.950Z,1024.07
2017-12-23T08:53:34.933Z,1024.06
2017-12-23T08:54:34.924Z,1024.04
2017-12-23T08:55:34.912Z,1023.95
2017-12-23T08:56:34.889Z,1023.91
2017-12-23T08:57:34.866Z,1023.92
2017-12-23T08:58:34.856Z,1023.85
2017-12-23T08:59:34.837Z,1023.86
2017-12-23T09:00:34.832Z,1023.84
2017-12-23T09:01:34.789Z,1023.76
2017-12-23T09:02:34.763Z,1023.78
2017-12-23T09:03:34.769Z,1023.72
2017-12-23T09:04:34.732Z,1023.72
2017-12-23T09:05:34.710Z,1023.66
2017-12-23T09:06:34.712Z,1023.74
2017-12-23T09:07:34.701Z,1023.71
2017-12-23T09:08:34.655Z,1023.69
2017-12-23T09:09:34.705Z,1023.73
2017-12-23T09:10:34.619Z,1023.75
2017-12-23T09:11:34.646Z,1023.74
2017-12-23T09:12:34.577Z,1023.76
2017-12-23T09:13:34.581Z,1023.75
2017-12-23T09:14:34.553Z,1023.73
2017-12-23T09:15:34.534Z,1023.82
2017-12-23T09:16:34.508Z,1023.69
2017-12-23T09:17:34.598Z,1023.77
2017-12-23T09:18:34.475Z,1023.75
2017-12-23T09:19:34.463Z,1023.74
2017-12-23T09:20:34.431Z,1023.73
2017-12-23T09:21:34.425Z,1023.74
2017-12-23T09:22:34.406Z,1023.77
2017-12-23T09:23:34.421Z,1023.72
2017-12-23T09:24:34.357Z,1023.69
2017-12-23T09:25:34.349Z,1023.72
2017-12-23T09:26:34.323Z,1023.80
2017-12-23T09:27:34.312Z,1023.75
2017-12-23T09:28:34.315Z,1023.82
2017-12-23T09:29:34.277Z,1023.85
2017-12-23T09:30:34.279Z,1023.81
2017-12-23T09:31:34.247Z,1023.85
2017-12-23T09:32:34.215Z,1023.81
2017-12-23T09:33:34.208Z,1023.81
2017-12-23T09:34:34.193Z,1023.89
2017-12-23T09:35:34.173Z,1023.89
2017-12-23T09:36:34.147Z,1023.91
2017-12-23T09:37:34.122Z,1023.89
2017-12-23T09:38:34.117Z,1023.91
2017-12-23T09:39:34.116Z,1023.92
2017-12-23T09:40:34.093Z,1023.95
2017-12-23T09:41:34.058Z,1023.97
2017-12-23T09:42:34.059Z,1023.94
2017-12-23T09:43:34.031Z,1023.96
2017-12-23T09:44:34.007Z,1024.01
2017-12-23T09:45:33.987Z,1023.99
2017-12-23T09:46:33.989Z,1023.98
2017-12-23T09:47:33.985Z,1023.96
2017-12-23T09:48:33.934Z,1023.92
2017-12-23T09:49:33.907Z,1023.93
2017-12-23T09:50:33.888Z,1023.91
2017-12-23T09:51:33.868Z,1023.95
2017-12-23T09:52:33.873Z,1023.97
2017-12-23T09:53:33.820Z,1024.02
2017-12-23T09:54:33.810Z,1023.99
2017-12-23T09:55:33.796Z,1024.00
2017-12-23T09:56:33.781Z,1023.98
2017-12-23T09:57:33.753Z,1023.95
2017-12-23T09:58:33.800Z,1023.93
2017-12-23T09:59:33.715Z,1023.93
2017-12-23T10:00:33.718Z,1023.96
2017-12-23T10:01:33.684Z,1024.02
2017-12-23T10:02:33.673Z,1024.03
2017-12-23T10:03:33.648Z,1023.95
2017-12-23T10:04:33.629Z,1023.96
2017-12-23T10:05:33.612Z,1023.93
2017-12-23T10:06:33.593Z,1023.93
2017-12-23T10:07:33.579Z,1023.94
2017-12-23T10:08:33.557Z,1023.95
2017-12-23T10:09:33.545Z,1023.92
2017-12-23T10:10:33.521Z,1023.91
2017-12-23T10:11:33.536Z,1023.95
2017-12-23T10:12:33.487Z,1023.87
2017-12-23T10:13:33.453Z,1023.92
2017-12-23T10:14:33.443Z,1023.90
2017-12-23T10:15:33.428Z,1023.87
2017-12-23T10:16:33.404Z,1023.93
2017-12-23T10:17:33.383Z,1023.82
2017-12-23T10:18:33.370Z,1023.85
2017-12-23T10:19:33.345Z,1023.80
2017-12-23T10:20:33.333Z,1023.80
2017-12-23T10:21:33.315Z,1023.84
2017-12-23T10:22:33.292Z,1023.77
2017-12-23T10:23:33.281Z,1023.76
2017-12-23T10:24:33.284Z,1023.69
2017-12-23T10:25:33.245Z,1023.65
2017-12-23T10:26:33.310Z,1023.66
2017-12-23T10:27:33.217Z,1023.66
2017-12-23T10:28:33.221Z,1023.68
2017-12-23T10:29:33.164Z,1023.65
2017-12-23T10:30:33.166Z,1023.57
2017-12-23T10:31:33.137Z,1023.57
2017-12-23T10:32:33.138Z,1023.64
2017-12-23T10:33:33.268Z,1023.57
2017-12-23T10:34:33.101Z,1023.68
2017-12-23T10:35:33.079Z,1023.69
2017-12-23T10:36:33.076Z,1023.62
2017-12-23T10:37:33.018Z,1023.67
2017-12-23T10:38:33.013Z,1023.70
2017-12-23T10:39:32.998Z,1023.62
2017-12-23T10:40:32.970Z,1023.71
2017-12-23T10:41:32.945Z,1023.68
2017-12-23T10:42:32.929Z,1023.61
2017-12-23T10:43:32.915Z,1023.69
2017-12-23T10:44:32.908Z,1023.66
2017-12-23T10:45:32.872Z,1023.66
2017-12-23T10:46:32.974Z,1023.60
2017-12-23T10:47:32.841Z,1023.63
2017-12-23T10:48:32.855Z,1023.65
2017-12-23T10:49:32.839Z,1023.61
2017-12-23T10:50:32.795Z,1023.68
2017-12-23T10:51:32.832Z,1023.61
2017-12-23T10:52:32.780Z,1023.69
2017-12-23T10:53:32.743Z,1023.64
2017-12-23T10:54:32.720Z,1023.58
2017-12-23T10:55:32.705Z,1023.61
2017-12-23T10:56:32.690Z,1023.64
2017-12-23T10:57:32.667Z,1023.64
2017-12-23T10:58:32.642Z,1023.67
2017-12-23T10:59:32.619Z,1023.69
2017-12-23T11:00:32.608Z,1023.74
2017-12-23T11:01:32.632Z,1023.77
2017-12-23T11:02:32.591Z,1023.73
2017-12-23T11:03:32.572Z,1023.77
2017-12-23T11:04:32.557Z,1023.81
2017-12-23T11:05:32.539Z,1023.85
2017-12-23T11:06:32.491Z,1023.73
2017-12-23T11:07:32.478Z,1023.86
2017-12-23T11:08:32.455Z,1023.72
2017-12-23T11:09:32.453Z,1023.71
2017-12-23T11:10:32.420Z,1023.73
2017-12-23T11:11:32.406Z,1023.68
2017-12-23T11:12:32.409Z,1023.68
2017-12-23T11:13:32.379Z,1023.69
2017-12-23T11:14:32.359Z,1023.69
2017-12-23T11:15:32.345Z,1023.64
2017-12-23T11:16:32.337Z,1023.66
2017-12-23T11:17:32.396Z,1023.67
2017-12-23T11:18:32.266Z,1023.68
2017-12-23T11:19:32.257Z,1023.63
2017-12-23T11:20:32.291Z,1023.57
2017-12-23T11:21:32.247Z,1023.68
2017-12-23T11:22:32.200Z,1023.57
2017-12-23T11:23:32.194Z,1023.60
2017-12-23T11:24:32.185Z,1023.52
2017-12-23T11:25:32.167Z,1023.50
2017-12-23T11:26:32.128Z,1023.51
2017-12-23T11:27:32.100Z,1023.38
2017-12-23T11:28:32.203Z,1023.43
2017-12-23T11:29:32.107Z,1023.36
2017-12-23T11:30:32.053Z,1023.30
2017-12-23T11:31:32.092Z,1023.29
2017-12-23T11:32:32.045Z,1023.31
2017-12-23T11:33:32.026Z,1023.33
2017-12-23T11:34:31.999Z,1023.30
2017-12-23T11:35:31.980Z,1023.35
2017-12-23T11:36:31.963Z,1023.27
2017-12-23T11:37:31.943Z,1023.22
2017-12-23T11:38:31.948Z,1023.21
2017-12-23T11:39:31.896Z,1023.19
2017-12-23T11:40:31.874Z,1023.18
2017-12-23T11:41:31.880Z,1023.15
2017-12-23T11:42:31.860Z,1023.13
2017-12-23T11:43:31.853Z,1023.20
2017-12-23T11:44:31.812Z,1023.09
2017-12-23T11:45:31.818Z,1023.06
2017-12-23T11:46:31.798Z,1023.07
2017-12-23T11:47:31.763Z,1023.15
2017-12-23T11:48:31.738Z,1023.08
2017-12-23T11:49:31.724Z,1023.05
2017-12-23T11:50:31.710Z,1023.07
2017-12-23T11:51:31.671Z,1023.11
2017-12-23T11:52:31.761Z,1023.05
2017-12-23T11:53:31.732Z,1023.01
2017-12-23T11:54:31.635Z,1022.99
2017-12-23T11:55:31.628Z,1023.00
2017-12-23T11:56:31.613Z,1022.95
2017-12-23T11:57:31.581Z,1022.96
2017-12-23T11:58:31.656Z,1023.00
2017-12-23T11:59:31.555Z,1022.95
2017-12-23T12:00:31.516Z,1022.98
2017-12-23T12:01:31.505Z,1022.93
2017-12-23T12:02:31.496Z,1022.84
2017-12-23T12:03:31.486Z,1022.93
2017-12-23T12:04:31.481Z,1022.92
2017-12-23T12:05:31.429Z,1022.88
2017-12-23T12:06:31.410Z,1022.88
2017-12-23T12:07:31.383Z,1022.89
2017-12-23T12:08:31.381Z,1022.83